Time;durP1;ratioP1;P1;durP2;ratioP2;P2;SDS_P1;SDS_P2;PMS_P1;PMS_P2;Temp;Humidity;BMP_temperature;BMP_pressure;BME280_temperature;BME280_humidity;BME280_pressure;Samples;Min_cycle;Max_cycle;Signal;HPM_P1;HPM_P2
2021/09/16 00:00:54;;;;;;;4.25;2.58;;;;;;;17.71;95.19;98584.34;5029862;28;20036;-66
2021/09/16 00:03:19;;;;;;;5.78;2.97;;;;;;;17.70;95.21;98576.38;5031268;28;20025;-66
2021/09/16 00:05:44;;;;;;;4.00;3.17;;;;;;;17.71;95.52;98576.16;5032119;28;20383;-66
2021/09/16 00:08:10;;;;;;;4.45;2.92;;;;;;;17.79;95.26;98563.06;5031951;28;20025;-66
2021/09/16 00:10:35;;;;;;;5.32;3.50;;;;;;;17.80;95.13;98570.25;5032515;28;20024;-66
2021/09/16 00:13:00;;;;;;;5.45;2.60;;;;;;;17.85;94.27;98573.88;5032142;28;20021;-67
2021/09/16 00:15:26;;;;;;;4.55;3.28;;;;;;;17.86;94.13;98559.09;5032150;28;20031;-66
2021/09/16 00:17:51;;;;;;;9.25;2.63;;;;;;;17.92;94.06;98568.16;5031662;28;20029;-67
2021/09/16 00:20:16;;;;;;;9.15;3.00;;;;;;;17.89;94.04;98579.63;5031471;28;20503;-66
2021/09/16 00:22:42;;;;;;;5.18;2.58;;;;;;;17.91;93.91;98580.22;5032895;28;20025;-67
2021/09/16 00:25:07;;;;;;;5.05;2.90;;;;;;;17.87;93.95;98581.84;5034175;28;20022;-66
2021/09/16 00:27:33;;;;;;;4.00;2.70;;;;;;;17.97;92.88;98581.91;5032531;28;20036;-67
2021/09/16 00:29:58;;;;;;;7.90;2.72;;;;;;;17.96;92.67;98580.28;5032771;28;20034;-66
2021/09/16 00:32:23;;;;;;;4.18;2.50;;;;;;;17.96;92.96;98577.53;5029300;28;20079;-66
2021/09/16 00:34:49;;;;;;;4.88;2.53;;;;;;;17.96;92.16;98591.22;5026179;28;20053;-66
2021/09/16 00:37:15;;;;;;;7.43;2.70;;;;;;;17.96;91.85;98580.28;5031856;28;20017;-66
2021/09/16 00:39:41;;;;;;;5.78;3.10;;;;;;;17.98;91.82;98575.38;5031801;28;20494;-66
2021/09/16 00:42:06;;;;;;;4.20;2.22;;;;;;;18.04;91.41;98574.34;5031642;28;20021;-66
2021/09/16 00:44:32;;;;;;;7.15;2.33;;;;;;;18.05;91.51;98586.09;5030950;28;20028;-67
2021/09/16 00:46:57;;;;;;;5.03;2.35;;;;;;;18.11;90.61;98577.72;5030999;28;20110;-66
2021/09/16 00:49:22;;;;;;;5.03;2.55;;;;;;;18.02;90.74;98568.28;5030694;28;20036;-66
2021/09/16 00:51:48;;;;;;;4.05;2.40;;;;;;;18.06;90.18;98571.34;5021992;28;20026;-66
2021/09/16 00:54:16;;;;;;;3.47;2.33;;;;;;;18.01;89.57;98572.13;5029607;28;20060;-66
2021/09/16 00:56:46;;;;;;;3.50;1.95;;;;;;;18.09;89.35;98585.34;5031307;28;20036;-66
2021/09/16 00:59:14;;;;;;;2.85;2.28;;;;;;;18.05;89.75;98583.38;5031585;28;20056;-66
2021/09/16 01:01:39;;;;;;;2.95;2.10;;;;;;;18.06;89.85;98580.38;5031350;28;20040;-66
2021/09/16 01:04:05;;;;;;;6.00;2.42;;;;;;;18.00;90.47;98583.31;5030583;28;20034;-67
2021/09/16 01:06:30;;;;;;;4.88;2.13;;;;;;;17.91;90.41;98583.78;5031531;28;20364;-67
2021/09/16 01:08:55;;;;;;;4.55;2.20;;;;;;;17.96;90.72;98580.28;5030682;28;20100;-67
2021/09/16 01:11:21;;;;;;;5.28;2.13;;;;;;;17.92;91.00;98592.81;5034478;28;20056;-67
2021/09/16 01:13:47;;;;;;;5.28;2.08;;;;;;;17.90;91.40;98592.25;5035784;28;20026;-67
2021/09/16 01:16:13;;;;;;;3.97;2.35;;;;;;;17.77;91.45;98562.53;5035271;28;20033;-67
2021/09/16 01:18:39;;;;;;;2.50;2.10;;;;;;;17.95;90.70;98595.06;5034678;28;20442;-67
2021/09/16 01:21:04;;;;;;;5.15;2.63;;;;;;;17.91;91.17;98589.25;5034966;28;20487;-67
2021/09/16 01:23:30;;;;;;;4.72;1.80;;;;;;;17.87;91.51;98587.31;5034460;28;20060;-67
2021/09/16 01:25:55;;;;;;;3.88;2.33;;;;;;;17.88;91.97;98588.94;5035745;28;20052;-67
2021/09/16 01:28:20;;;;;;;3.97;2.20;;;;;;;17.90;92.35;98587.59;5035243;28;20021;-68
2021/09/16 01:30:47;;;;;;;3.85;2.03;;;;;;;17.91;91.90;98583.78;5034963;28;20041;-67
2021/09/16 01:33:13;;;;;;;3.08;1.77;;;;;;;17.99;90.37;98577.03;5034152;28;20025;-67
2021/09/16 01:35:38;;;;;;;2.08;1.73;;;;;;;18.06;90.51;98585.88;5022767;28;20466;-67
2021/09/16 01:38:04;;;;;;;2.33;1.85;;;;;;;18.00;90.28;98591.53;5025341;28;20045;-69
2021/09/16 01:40:29;;;;;;;5.50;2.13;;;;;;;17.90;90.98;98581.31;5035045;28;20057;-68
2021/09/16 01:42:54;;;;;;;3.40;1.90;;;;;;;17.82;91.79;98577.13;5034091;28;20125;-67
2021/09/16 01:45:23;;;;;;;4.82;1.73;;;;;;;17.89;91.47;98591.44;5033081;28;20137;-67
2021/09/16 01:47:49;;;;;;;3.47;1.97;;;;;;;17.85;91.95;98593.03;5170471;22;20036;-67
2021/09/16 01:50:17;;;;;;;3.35;1.50;;;;;;;17.81;92.53;98594.59;5089208;28;20059;-65
2021/09/16 01:52:42;;;;;;;2.28;1.60;;;;;;;17.84;92.72;98598.75;5089619;28;20052;-66
2021/09/16 01:55:08;;;;;;;3.30;2.40;;;;;;;17.78;94.74;98589.63;5088993;28;20093;-68
2021/09/16 01:57:34;;;;;;;4.70;2.50;;;;;;;17.74;96.09;98591.22;5090576;28;20028;-66
2021/09/16 02:00:00;;;;;;;6.50;2.20;;;;;;;17.57;97.00;98569.38;5072035;28;20032;-66
2021/09/16 02:02:25;;;;;;;3.13;2.15;;;;;;;17.59;97.01;98580.91;5080111;28;20023;-66
2021/09/16 02:04:51;;;;;;;6.43;2.40;;;;;;;17.71;96.52;98575.28;5080008;28;20044;-66
2021/09/16 02:07:16;;;;;;;3.50;2.13;;;;;;;17.73;96.27;98571.22;5080717;28;20028;-66
2021/09/16 02:09:41;;;;;;;9.00;2.10;;;;;;;17.65;96.81;98563.47;5069999;28;20021;-65
2021/09/16 02:12:07;;;;;;;4.43;2.13;;;;;;;17.44;97.71;98548.72;5081832;28;20064;-65
2021/09/16 02:14:32;;;;;;;4.25;2.35;;;;;;;17.47;98.47;98566.53;5080006;28;20035;-66
2021/09/16 02:16:57;;;;;;;5.03;2.25;;;;;;;17.39;99.75;98561.50;5080601;28;20025;-66
2021/09/16 02:19:23;;;;;;;2.90;1.90;;;;;;;17.28;99.72;98561.34;5074843;28;20033;-66
2021/09/16 02:21:48;;;;;;;3.10;1.92;;;;;;;17.24;100.00;98560.22;5059953;28;20024;-65
2021/09/16 02:24:13;;;;;;;3.40;2.05;;;;;;;17.25;100.00;98564.59;5082680;28;20068;-66
2021/09/16 02:26:39;;;;;;;4.22;2.30;;;;;;;17.21;100.00;98559.88;5081185;28;20048;-65
2021/09/16 02:29:04;;;;;;;9.35;1.95;;;;;;;17.12;100.00;98559.50;5078044;28;20488;-66
2021/09/16 02:31:29;;;;;;;3.20;1.95;;;;;;;17.13;100.00;98557.59;5062443;28;20041;-65
2021/09/16 02:33:55;;;;;;;5.47;2.00;;;;;;;17.01;100.00;98555.78;5074079;28;20488;-67
2021/09/16 02:36:20;;;;;;;3.42;2.25;;;;;;;16.94;100.00;98557.88;5073856;28;20025;-65
2021/09/16 02:38:45;;;;;;;3.83;1.92;;;;;;;16.86;100.00;98550.94;5076072;28;20028;-65
2021/09/16 02:41:11;;;;;;;2.80;1.95;;;;;;;16.86;100.00;98561.84;5076241;28;20051;-66
2021/09/16 02:43:36;;;;;;;5.82;2.10;;;;;;;16.81;100.00;98560.94;5065993;28;20108;-65
2021/09/16 02:46:02;;;;;;;3.90;2.22;;;;;;;16.74;100.00;98552.91;5078062;28;20025;-66
2021/09/16 02:48:27;;;;;;;2.72;1.77;;;;;;;16.84;100.00;98547.59;5080867;28;20025;-66
2021/09/16 02:50:52;;;;;;;2.92;2.05;;;;;;;16.90;100.00;98553.16;5082999;28;20070;-65
2021/09/16 02:53:17;;;;;;;4.35;2.33;;;;;;;16.92;100.00;98542.81;5067504;28;20083;-65
2021/09/16 02:55:43;;;;;;;4.05;1.70;;;;;;;16.96;100.00;98549.44;5091144;28;20028;-66
2021/09/16 02:58:09;;;;;;;3.50;1.80;;;;;;;16.91;100.00;98543.91;5090466;28;20031;-66
2021/09/16 03:00:34;;;;;;;2.85;1.63;;;;;;;16.91;100.00;98546.63;5081926;28;20032;-66
2021/09/16 03:02:59;;;;;;;2.53;1.77;;;;;;;16.98;100.00;98550.03;5076226;28;20430;-65
2021/09/16 03:05:25;;;;;;;3.97;1.98;;;;;;;16.98;100.00;98552.75;5080262;28;20115;-65
2021/09/16 03:07:50;;;;;;;5.10;2.30;;;;;;;16.96;100.00;98557.63;5086928;28;20027;-66
2021/09/16 03:10:15;;;;;;;3.20;2.08;;;;;;;16.87;100.00;98546.28;5087923;28;20054;-66
2021/09/16 03:12:41;;;;;;;2.60;1.90;;;;;;;16.92;100.00;98553.72;5087617;28;20028;-67
2021/09/16 03:15:07;;;;;;;2.70;1.73;;;;;;;16.99;100.00;98557.13;5085215;28;20036;-66
2021/09/16 03:17:32;;;;;;;5.88;1.60;;;;;;;16.99;100.00;98546.19;5076722;28;20040;-66
2021/09/16 03:19:57;;;;;;;3.78;1.90;;;;;;;16.92;100.00;98523.69;5075600;28;20020;-66
2021/09/16 03:22:23;;;;;;;5.65;1.88;;;;;;;17.04;100.00;98555.28;5089310;28;20064;-67
2021/09/16 03:24:48;;;;;;;3.05;1.98;;;;;;;17.08;100.00;98533.72;5071123;28;20028;-67
2021/09/16 03:27:13;;;;;;;3.28;1.73;;;;;;;17.15;100.00;98531.66;5088450;28;20092;-66
2021/09/16 03:29:39;;;;;;;3.28;1.45;;;;;;;17.05;100.00;98539.72;5086230;28;20028;-66
2021/09/16 03:32:05;;;;;;;3.80;1.60;;;;;;;17.16;100.00;98533.31;5086489;28;20031;-66
2021/09/16 03:34:30;;;;;;;2.38;1.73;;;;;;;17.20;100.00;98536.38;5088404;28;20093;-67
2021/09/16 03:36:55;;;;;;;6.50;1.88;;;;;;;17.12;100.00;98542.28;5076514;28;20093;-67
2021/09/16 03:39:20;;;;;;;1.90;1.48;;;;;;;17.07;100.00;98540.28;5073501;28;20076;-66
2021/09/16 03:41:46;;;;;;;2.30;1.73;;;;;;;17.03;100.00;98533.69;5050111;28;20505;-67
2021/09/16 03:44:11;;;;;;;2.97;1.90;;;;;;;17.02;100.00;98542.94;5070708;28;20039;-66
2021/09/16 03:46:36;;;;;;;2.70;2.15;;;;;;;16.96;100.00;98527.56;5067444;28;20021;-67
2021/09/16 03:49:02;;;;;;;2.42;1.75;;;;;;;17.03;100.00;98539.16;5069815;28;20064;-66
2021/09/16 03:51:27;;;;;;;3.08;1.83;;;;;;;16.97;100.00;98534.69;5054465;28;20020;-67
2021/09/16 03:53:52;;;;;;;2.92;1.80;;;;;;;17.00;100.00;98539.63;5048147;28;20098;-67
2021/09/16 03:56:18;;;;;;;2.67;1.85;;;;;;;16.99;100.00;98532.53;5065831;28;20029;-67
2021/09/16 03:58:43;;;;;;;5.55;1.92;;;;;;;17.01;100.00;98541.31;5074901;28;20373;-67
2021/09/16 04:01:08;;;;;;;2.55;1.73;;;;;;;17.09;100.00;98538.13;5071828;28;20036;-70
2021/09/16 04:03:34;;;;;;;3.75;1.77;;;;;;;17.09;100.00;98528.03;5071109;28;20064;-70
2021/09/16 04:05:59;;;;;;;2.90;1.77;;;;;;;17.08;100.00;98528.28;5074401;28;20031;-71
2021/09/16 04:08:24;;;;;;;6.43;1.80;;;;;;;17.20;100.00;98550.88;5072398;28;20035;-69
2021/09/16 04:10:50;;;;;;;2.25;1.40;;;;;;;17.24;100.00;98548.47;5062997;28;20028;-75
2021/09/16 04:13:15;;;;;;;3.72;1.70;;;;;;;17.15;100.00;98534.38;5040258;28;20027;-75
2021/09/16 04:15:40;;;;;;;3.35;1.73;;;;;;;17.16;100.00;98544.25;5044911;28;20474;-74
2021/09/16 04:18:06;;;;;;;6.60;1.95;;;;;;;17.13;100.00;98539.28;5045216;28;20547;-76
2021/09/16 04:20:31;;;;;;;1.50;1.17;;;;;;;17.19;100.00;98537.47;5044182;28;20040;-73
2021/09/16 04:22:56;;;;;;;2.97;1.60;;;;;;;17.17;100.00;98539.63;5052744;28;20021;-76
2021/09/16 04:25:22;;;;;;;6.75;1.67;;;;;;;17.22;100.00;98545.97;5066812;28;20064;-76
2021/09/16 04:27:47;;;;;;;3.83;1.98;;;;;;;17.23;100.00;98553.09;5061632;28;20107;-76
2021/09/16 04:30:12;;;;;;;3.95;1.45;;;;;;;17.13;100.00;98539.28;5066333;28;20032;-72
2021/09/16 04:32:38;;;;;;;4.57;1.83;;;;;;;17.23;100.00;98544.88;5053770;28;20009;-73
2021/09/16 04:35:08;;;;;;;1.73;1.30;;;;;;;17.25;100.00;98550.94;5067821;28;20056;-75
2021/09/16 04:37:33;;;;;;;2.35;1.30;;;;;;;17.29;100.00;98549.34;5069096;28;20694;-74
2021/09/16 04:39:59;;;;;;;2.45;1.40;;;;;;;17.36;100.00;98554.63;5045703;28;20051;-73
2021/09/16 04:42:25;;;;;;;2.45;1.63;;;;;;;17.27;100.00;98540.56;5055916;28;20016;-75
2021/09/16 04:44:50;;;;;;;3.85;1.88;;;;;;;17.23;100.00;98555.00;5049914;28;20055;-75
2021/09/16 04:47:15;;;;;;;2.65;1.67;;;;;;;17.22;100.00;98561.56;5070717;28;20082;-75
2021/09/16 04:49:41;;;;;;;4.00;1.60;;;;;;;17.26;100.00;98555.31;5072480;28;20059;-75
2021/09/16 04:52:06;;;;;;;4.05;1.42;;;;;;;17.26;100.00;98566.25;5054508;28;20493;-74
2021/09/16 04:54:31;;;;;;;2.90;1.65;;;;;;;17.24;100.00;98565.69;5060658;28;20077;-71
2021/09/16 04:56:56;;;;;;;5.38;1.90;;;;;;;17.27;100.00;98558.91;5075781;28;20024;-70
2021/09/16 04:59:22;;;;;;;3.95;1.70;;;;;;;17.24;100.00;98556.66;5081866;28;20048;-77
2021/09/16 05:01:47;;;;;;;4.65;1.70;;;;;;;17.26;100.00;98570.88;5073035;28;20017;-70
2021/09/16 05:04:12;;;;;;;3.80;1.85;;;;;;;17.23;100.00;98558.56;5060214;28;20044;-69
2021/09/16 05:06:38;;;;;;;3.97;1.83;;;;;;;17.27;100.00;98573.38;5066997;28;20036;-70
2021/09/16 05:09:03;;;;;;;4.03;1.60;;;;;;;17.29;100.00;98571.22;5069374;28;20036;-72
2021/09/16 05:11:29;;;;;;;1.88;1.40;;;;;;;17.30;100.00;98575.63;5079640;28;20394;-74
2021/09/16 05:13:54;;;;;;;2.55;1.63;;;;;;;17.23;100.00;98576.88;5076078;28;20048;-76
2021/09/16 05:16:19;;;;;;;4.15;2.00;;;;;;;17.21;100.00;98573.56;5079529;28;20024;-76
2021/09/16 05:18:44;;;;;;;2.75;1.85;;;;;;;17.08;100.00;98577.47;5079283;28;20040;-78
2021/09/16 05:21:11;;;;;;;5.55;2.03;;;;;;;16.98;100.00;98564.50;5056619;28;20024;-77
2021/09/16 05:23:36;;;;;;;4.20;2.30;;;;;;;16.95;100.00;98570.47;5061307;28;20105;-76
2021/09/16 05:26:02;;;;;;;2.50;1.88;;;;;;;16.99;100.00;98571.63;5076569;28;20064;-73
2021/09/16 05:28:28;;;;;;;7.47;2.40;;;;;;;16.93;100.00;98577.28;5063426;28;20036;-79
2021/09/16 05:30:53;;;;;;;3.75;1.98;;;;;;;16.94;100.00;98581.66;5073797;28;20098;-75
2021/09/16 05:33:18;;;;;;;3.70;1.95;;;;;;;16.77;100.00;98573.44;5073471;28;20378;-75
2021/09/16 05:35:44;;;;;;;6.43;2.00;;;;;;;16.92;100.00;98567.41;5064528;28;20436;-76
2021/09/16 05:38:09;;;;;;;2.88;1.92;;;;;;;17.03;100.00;98577.44;5058734;28;20366;-76
2021/09/16 05:40:35;;;;;;;4.07;1.90;;;;;;;17.02;100.00;98582.03;5073650;28;20104;-71
2021/09/16 05:43:00;;;;;;;4.70;2.13;;;;;;;16.99;100.00;98577.06;5072187;28;20029;-69
2021/09/16 05:45:26;;;;;;;3.72;1.95;;;;;;;16.99;100.00;98576.25;5068202;28;20033;-74
2021/09/16 05:47:51;;;;;;;5.68;1.80;;;;;;;16.96;100.00;98576.75;5085722;28;20020;-71
2021/09/16 05:50:16;;;;;;;3.92;2.10;;;;;;;16.91;100.00;98580.25;5078002;28;20024;-72
2021/09/16 05:52:42;;;;;;;3.58;1.88;;;;;;;16.90;100.00;98580.47;5063485;28;20363;-69
2021/09/16 05:55:09;;;;;;;6.03;2.00;;;;;;;16.86;100.00;98589.19;5052850;28;20083;-69
2021/09/16 05:57:34;;;;;;;5.35;1.83;;;;;;;16.95;100.00;98575.09;5069042;28;20124;-74
2021/09/16 06:00:00;;;;;;;4.95;2.25;;;;;;;16.96;100.00;98587.69;5067110;28;20045;-68
2021/09/16 06:02:26;;;;;;;5.55;1.80;;;;;;;16.91;100.00;98584.88;5061037;28;20027;-69
2021/09/16 06:04:51;;;;;;;3.13;1.83;;;;;;;16.85;100.00;98597.66;5074941;28;20028;-69
2021/09/16 06:07:16;;;;;;;5.20;2.33;;;;;;;16.81;100.00;98602.75;5054563;28;20374;-69
2021/09/16 06:09:41;;;;;;;4.75;2.03;;;;;;;16.78;100.00;98597.78;5062707;28;20478;-69
2021/09/16 06:12:08;;;;;;;4.57;2.10;;;;;;;16.71;100.00;98585.34;5070907;28;20024;-69
2021/09/16 06:14:34;;;;;;;6.57;2.38;;;;;;;16.74;100.00;98593.88;5058046;28;20072;-68
2021/09/16 06:16:59;;;;;;;4.40;2.33;;;;;;;16.78;100.00;98596.97;5068497;28;20063;-68
2021/09/16 06:19:25;;;;;;;3.92;2.30;;;;;;;16.82;100.00;98598.13;5060663;28;20025;-68
2021/09/16 06:21:50;;;;;;;5.65;1.90;;;;;;;16.90;100.00;98599.59;5064365;28;20055;-68
2021/09/16 06:24:16;;;;;;;4.35;2.35;;;;;;;16.90;100.00;98599.59;5077417;28;20508;-70
2021/09/16 06:26:41;;;;;;;6.25;2.17;;;;;;;16.89;100.00;98589.75;5047351;28;20127;-68
2021/09/16 06:29:06;;;;;;;5.88;2.15;;;;;;;16.96;100.00;98598.63;5064073;28;20067;-68
2021/09/16 06:31:31;;;;;;;6.43;2.22;;;;;;;16.98;100.00;98600.03;5061586;28;20519;-68
2021/09/16 06:33:57;;;;;;;4.55;2.42;;;;;;;17.01;100.00;98601.44;5059341;28;20091;-68
2021/09/16 06:36:22;;;;;;;4.63;2.13;;;;;;;17.09;100.00;98609.22;5058058;28;20185;-72
2021/09/16 06:38:47;;;;;;;4.35;2.42;;;;;;;17.06;100.00;98601.53;5062429;28;20583;-72
2021/09/16 06:41:13;;;;;;;4.57;2.20;;;;;;;17.08;100.00;98596.59;5065439;28;20035;-74
2021/09/16 06:43:38;;;;;;;6.35;2.42;;;;;;;17.07;100.00;98608.63;5063898;28;20028;-77
2021/09/16 06:46:03;;;;;;;5.35;2.10;;;;;;;17.04;100.00;98595.47;5061756;28;20540;-77
2021/09/16 06:48:29;;;;;;;3.95;2.25;;;;;;;17.09;100.00;98606.47;5054583;28;20032;-73
2021/09/16 06:50:56;;;;;;;4.80;3.03;;;;;;;16.93;100.00;98605.41;5061422;28;20090;-76
2021/09/16 06:53:21;;;;;;;5.63;2.40;;;;;;;17.08;100.00;98623.94;5054682;28;20017;-74
2021/09/16 06:55:46;;;;;;;4.05;2.30;;;;;;;17.08;100.00;98616.59;5044609;28;20074;-71
2021/09/16 06:58:13;;;;;;;10.23;5.03;;;;;;;16.96;100.00;98621.31;5069295;28;20439;-71
2021/09/16 07:00:38;;;;;;;14.45;7.13;;;;;;;16.98;100.00;98626.53;5061048;28;20032;-71
2021/09/16 07:03:03;;;;;;;29.85;13.40;;;;;;;17.05;100.00;98629.91;5058161;28;20040;-71
2021/09/16 07:05:28;;;;;;;40.38;16.63;;;;;;;16.99;100.00;98641.84;5059598;28;20052;-71
2021/09/16 07:07:54;;;;;;;38.58;18.02;;;;;;;16.95;100.00;98636.06;5057551;28;20036;-71
2021/09/16 07:10:19;;;;;;;34.97;17.08;;;;;;;16.95;100.00;98638.78;5057049;28;20024;-71
2021/09/16 07:12:45;;;;;;;41.67;17.88;;;;;;;16.89;100.00;98636.22;5057170;28;20021;-75
2021/09/16 07:15:10;;;;;;;39.78;18.13;;;;;;;16.88;100.00;98642.78;5063858;28;20056;-75
2021/09/16 07:17:36;;;;;;;36.03;17.42;;;;;;;17.00;100.00;98651.69;5052130;28;20024;-71
2021/09/16 07:20:02;;;;;;;33.53;16.83;;;;;;;17.05;100.00;98643.56;5068806;28;20478;-72
2021/09/16 07:22:28;;;;;;;31.48;16.17;;;;;;;17.10;100.00;98643.66;5054025;28;20052;-71
2021/09/16 07:24:53;;;;;;;35.58;17.13;;;;;;;17.15;100.00;98641.00;5049116;28;21251;-76
2021/09/16 07:27:18;;;;;;;33.53;16.08;;;;;;;17.16;100.00;98636.34;5068566;28;20029;-76
2021/09/16 07:29:44;;;;;;;31.83;16.40;;;;;;;17.16;100.00;98629.00;5054920;28;20033;-74
2021/09/16 07:32:09;;;;;;;31.30;16.83;;;;;;;17.17;100.00;98638.84;5047574;28;20410;-75
2021/09/16 07:34:34;;;;;;;29.38;15.48;;;;;;;17.37;100.00;98649.28;5042375;28;20155;-75
2021/09/16 07:37:00;;;;;;;26.23;16.17;;;;;;;17.45;100.00;98650.75;5036284;28;20120;-76
2021/09/16 07:39:25;;;;;;;28.20;14.90;;;;;;;17.60;100.00;98661.06;5041183;28;20032;-74
2021/09/16 07:41:51;;;;;;;27.40;16.05;;;;;;;17.66;100.00;98658.16;5054057;28;20024;-75
2021/09/16 07:44:17;;;;;;;21.02;11.70;;;;;;;17.77;100.00;98661.84;5062925;28;20039;-71
2021/09/16 07:46:43;;;;;;;16.25;9.95;;;;;;;17.89;100.00;98645.31;5059460;28;20033;-74
2021/09/16 07:49:09;;;;;;;12.98;9.55;;;;;;;18.09;100.00;98667.47;5140407;22;20045;-75
2021/09/16 07:51:34;;;;;;;13.82;9.25;;;;;;;17.92;100.00;98653.03;5044532;28;20047;-73
2021/09/16 07:53:59;;;;;;;14.43;9.02;;;;;;;17.91;100.00;98676.00;5039481;28;20020;-72
2021/09/16 07:56:24;;;;;;;12.57;8.77;;;;;;;17.70;100.00;98672.16;5048294;28;20040;-69
2021/09/16 07:58:50;;;;;;;11.95;9.13;;;;;;;17.35;100.00;98667.00;5052592;28;20032;-70
2021/09/16 08:01:15;;;;;;;10.48;8.02;;;;;;;17.21;100.00;98675.56;5051278;28;20039;-72
2021/09/16 08:03:41;;;;;;;9.25;6.43;;;;;;;17.29;100.00;98696.16;5051306;28;20032;-69
2021/09/16 08:06:06;;;;;;;7.18;5.05;;;;;;;17.17;100.00;98701.72;5048882;28;20025;-70
2021/09/16 08:08:32;;;;;;;4.90;3.58;;;;;;;17.15;100.00;98705.78;5043647;28;20058;-70
2021/09/16 08:10:58;;;;;;;5.95;4.15;;;;;;;17.11;100.00;98705.47;5048363;28;20040;-68
2021/09/16 08:13:24;;;;;;;5.95;4.57;;;;;;;16.99;100.00;98700.06;5036138;28;20025;-70
2021/09/16 08:15:49;;;;;;;5.63;4.38;;;;;;;17.03;100.00;98709.44;5037779;28;20478;-70
2021/09/16 08:18:15;;;;;;;6.82;5.10;;;;;;;16.91;100.00;98716.06;5038261;28;20100;-70
2021/09/16 08:20:47;;;;;;;6.32;5.00;;;;;;;16.91;100.00;98710.59;5041223;28;20371;-73
2021/09/16 08:23:12;;;;;;;7.93;5.70;;;;;;;16.94;100.00;98710.91;5038053;28;20079;-73
2021/09/16 08:25:37;;;;;;;9.52;5.80;;;;;;;16.95;100.00;98719.94;5024639;28;20025;-73
2021/09/16 08:28:03;;;;;;;7.40;6.07;;;;;;;16.77;100.00;98710.06;5051136;28;20079;-74
2021/09/16 08:30:29;;;;;;;10.13;6.63;;;;;;;16.65;100.00;98721.84;5048000;28;20028;-71
2021/09/16 08:32:54;;;;;;;10.95;6.70;;;;;;;16.65;100.00;98730.03;5047577;28;20025;-72
2021/09/16 08:35:19;;;;;;;9.57;6.85;;;;;;;16.58;100.00;98718.44;5046655;28;20462;-72
2021/09/16 08:37:45;;;;;;;10.25;7.35;;;;;;;16.65;100.00;98738.22;5059668;28;20061;-73
2021/09/16 08:40:12;;;;;;;11.15;7.22;;;;;;;16.58;100.00;98729.38;5051914;28;20087;-79
2021/09/16 08:42:40;;;;;;;10.52;7.55;;;;;;;16.61;100.00;98745.28;5034006;28;20639;-71
2021/09/16 08:45:06;;;;;;;12.80;7.63;;;;;;;16.50;100.00;98724.28;5044022;28;20521;-71
2021/09/16 08:47:32;;;;;;;9.32;7.15;;;;;;;16.64;100.00;98743.97;5046374;28;20028;-70
2021/09/16 08:49:57;;;;;;;10.90;7.53;;;;;;;16.51;100.00;98734.16;5051816;28;20017;-74
2021/09/16 08:52:23;;;;;;;10.35;7.60;;;;;;;16.50;100.00;98740.66;5051372;28;20031;-74
2021/09/16 08:54:49;;;;;;;11.18;7.80;;;;;;;16.54;100.00;98750.03;5049950;28;20048;-76
2021/09/16 08:57:17;;;;;;;13.50;8.02;;;;;;;16.48;100.00;98748.28;5045384;28;20024;-73
2021/09/16 08:59:44;;;;;;;11.40;7.65;;;;;;;16.40;100.00;98748.66;5041874;28;20115;-72
2021/09/16 09:02:10;;;;;;;15.13;8.82;;;;;;;16.42;100.00;98747.34;5040846;28;20025;-70
2021/09/16 09:04:35;;;;;;;10.88;8.05;;;;;;;16.44;100.00;98752.56;5046535;28;20398;-71
2021/09/16 09:07:02;;;;;;;12.60;8.30;;;;;;;16.37;100.00;98758.19;5049823;28;20037;-67
2021/09/16 09:09:28;;;;;;;11.60;8.52;;;;;;;16.35;100.00;98749.41;5050932;28;20158;-68
2021/09/16 09:12:02;;;;;;;12.77;8.45;;;;;;;16.31;100.00;98750.94;5051177;28;20021;-69
2021/09/16 09:14:34;;;;;;;15.02;8.57;;;;;;;16.34;100.00;98764.09;5050838;28;20021;-75
2021/09/16 09:17:00;;;;;;;11.02;8.40;;;;;;;16.33;100.00;98770.66;5045893;28;20035;-75
2021/09/16 09:19:28;;;;;;;13.82;8.82;;;;;;;16.34;100.00;98766.84;5051721;28;20094;-75
2021/09/16 09:21:57;;;;;;;14.65;8.63;;;;;;;16.47;100.00;98762.19;5051853;28;20486;-76
2021/09/16 09:24:36;;;;;;;15.27;9.40;;;;;;;16.57;100.00;98768.66;5032938;28;20398;-68
2021/09/16 09:27:18;;;;;;;13.20;8.95;;;;;;;16.66;100.00;98752.72;5044502;28;20034;-72
2021/09/16 09:30:00;;;;;;;14.10;8.80;;;;;;;16.73;100.00;98745.22;5031464;28;20033;-75
2021/09/16 09:32:43;;;;;;;15.35;9.10;;;;;;;16.81;100.00;98761.22;5044092;28;20017;-78
2021/09/16 09:35:28;;;;;;;15.15;9.45;;;;;;;16.79;100.00;98773.47;5055022;28;20025;-68
2021/09/16 09:37:54;;;;;;;11.52;8.52;;;;;;;16.79;100.00;98751.63;5054338;28;20484;-72
2021/09/16 09:40:29;;;;;;;13.48;9.05;;;;;;;16.87;100.00;98775.81;5026005;28;20029;-72
2021/09/16 09:42:55;;;;;;;12.52;8.63;;;;;;;16.77;99.89;98770.16;5039668;28;20060;-71
2021/09/16 09:45:20;;;;;;;13.98;8.35;;;;;;;16.61;99.23;98753.47;5055438;28;20079;-77
2021/09/16 09:47:48;;;;;;;11.27;7.78;;;;;;;16.82;99.33;98779.31;5054768;28;20505;-77
2021/09/16 09:50:23;;;;;;;11.90;7.80;;;;;;;16.83;97.17;98772.75;5057158;28;20064;-76
2021/09/16 09:52:50;;;;;;;10.77;7.38;;;;;;;16.85;97.02;98772.53;5053402;28;20024;-74
2021/09/16 09:55:18;;;;;;;12.50;7.85;;;;;;;16.89;97.66;98773.66;5046379;28;20029;-73
2021/09/16 09:57:44;;;;;;;13.60;8.40;;;;;;;16.97;96.66;98773.28;5034371;28;20033;-72
2021/09/16 10:00:16;;;;;;;11.85;7.60;;;;;;;16.95;96.58;98760.94;5052072;28;20106;-72
2021/09/16 10:02:52;;;;;;;12.57;7.55;;;;;;;16.91;94.98;98760.59;5052570;28;20398;-75
2021/09/16 10:05:27;;;;;;;15.40;8.30;;;;;;;16.97;97.35;98783.38;5034503;28;20393;-75
2021/09/16 10:07:54;;;;;;;11.10;8.10;;;;;;;17.01;97.05;98782.66;5052984;28;20024;-74
2021/09/16 10:10:21;;;;;;;12.32;8.38;;;;;;;17.00;97.81;98780.16;5051608;28;20017;-75
2021/09/16 10:12:49;;;;;;;12.38;9.00;;;;;;;16.95;97.38;98788.25;5035582;28;20013;-74
2021/09/16 10:15:18;;;;;;;12.90;8.75;;;;;;;16.87;97.99;98784.00;5052763;28;20036;-74
2021/09/16 10:17:44;;;;;;;14.10;9.10;;;;;;;16.75;98.17;98794.16;5050101;28;20024;-73
2021/09/16 10:20:13;;;;;;;13.27;9.05;;;;;;;16.78;98.22;98799.16;5053253;28;20064;-73
2021/09/16 10:22:39;;;;;;;12.18;8.15;;;;;;;16.64;98.78;98790.41;5052964;28;20029;-74
2021/09/16 10:25:07;;;;;;;13.43;8.25;;;;;;;16.69;98.76;98790.50;5053766;28;20520;-70
2021/09/16 10:27:36;;;;;;;13.95;8.55;;;;;;;16.76;98.61;98793.88;5037951;28;20032;-71
2021/09/16 10:30:20;;;;;;;16.73;9.15;;;;;;;16.84;98.32;98782.59;5041596;28;20116;-71
2021/09/16 10:32:45;;;;;;;14.75;8.40;;;;;;;16.96;98.34;98789.94;5052451;28;20113;-71
2021/09/16 10:35:18;;;;;;;13.45;8.80;;;;;;;17.08;97.21;98798.88;5052653;28;20112;-71
2021/09/16 10:37:44;;;;;;;12.73;8.43;;;;;;;17.30;95.97;98791.63;5053435;28;20040;-71
2021/09/16 10:40:20;;;;;;;13.88;9.20;;;;;;;17.52;94.98;98793.63;5050344;28;20036;-71
2021/09/16 10:42:48;;;;;;;12.07;8.93;;;;;;;17.59;92.77;98793.47;5031929;28;20039;-71
2021/09/16 10:45:14;;;;;;;11.80;8.87;;;;;;;17.86;93.71;98797.19;5039161;28;20501;-71
2021/09/16 10:47:39;;;;;;;12.35;8.77;;;;;;;17.92;93.59;98777.03;5046742;28;20111;-71
2021/09/16 10:50:20;;;;;;;14.30;8.90;;;;;;;17.91;92.41;98766.34;5048037;28;20067;-72
2021/09/16 10:52:45;;;;;;;12.63;9.07;;;;;;;17.94;91.47;98795.94;5037581;28;20062;-72
2021/09/16 10:55:11;;;;;;;11.93;8.55;;;;;;;17.84;90.61;98795.78;5030951;28;20071;-73
2021/09/16 10:57:40;;;;;;;14.02;8.95;;;;;;;17.73;92.59;98792.03;5031530;28;20056;-70
2021/09/16 11:00:05;;;;;;;13.32;8.82;;;;;;;17.91;92.67;98791.78;5049859;28;20486;-69
2021/09/16 11:02:30;;;;;;;12.05;8.88;;;;;;;17.91;91.64;98791.78;5048901;28;20074;-70
2021/09/16 11:04:56;;;;;;;17.15;9.32;;;;;;;17.98;90.33;98788.91;5046024;28;20025;-72
2021/09/16 11:07:39;;;;;;;12.48;8.70;;;;;;;17.80;91.74;98786.44;5049654;28;20028;-68
2021/09/16 11:10:16;;;;;;;12.10;8.95;;;;;;;17.82;91.53;98795.22;5046624;28;20033;-68
2021/09/16 11:12:44;;;;;;;12.25;8.90;;;;;;;17.65;92.49;98776.88;5034635;28;20507;-69
2021/09/16 11:15:11;;;;;;;13.00;8.13;;;;;;;17.63;92.33;98776.31;5044394;28;20040;-69
2021/09/16 11:17:41;;;;;;;14.85;8.25;;;;;;;17.79;91.99;98792.94;5048275;28;20082;-68
2021/09/16 11:20:09;;;;;;;12.63;7.82;;;;;;;17.84;90.74;98793.91;5044632;28;20021;-69